Terminal Aerodrome Forecast
Issued by NWS Newport/Morehead City, NC

Home | Current Version | Previous Version | Text Only | Print | Product List | Glossary On
Versions: 1 2 3 4 5 6 7 8 9 10 11 12
000
FTUS42 KMHX 262338
TAFEWN
TAF
KEWN 262338Z 2700/2724 18008KT P6SM SKC
     FM270500 VRB03KT P6SM SKC
     FM271600 15009KT P6SM FEW050=

USA.gov is the U.S. government's official web portal to all federal, state and local government web resources and services.